Time;durP1;ratioP1;P1;durP2;ratioP2;P2;SDS_P1;SDS_P2;PMS_P1;PMS_P2;Temp;Humidity;BMP_temperature;BMP_pressure;BME280_temperature;BME280_humidity;BME280_pressure;Samples;Min_cycle;Max_cycle;Signal;HPM_P1;HPM_P2
2023/05/08 00:00:23;;;;;;;13.43;11.85;;;14.30;99.90;;;14.00;100.00;97489.91;4877539;29;20063;-41
2023/05/08 00:02:48;;;;;;;22.98;15.43;;;14.30;99.90;;;13.96;100.00;97490.97;4877637;29;20284;-41
2023/05/08 00:05:14;;;;;;;17.42;14.13;;;14.30;99.90;;;13.87;100.00;97474.63;4879669;29;20405;-41
2023/05/08 00:07:40;;;;;;;17.05;13.93;;;14.30;99.90;;;13.91;100.00;97491.22;4873502;29;20240;-40
2023/05/08 00:10:08;;;;;;;14.27;12.02;;;14.30;99.90;;;13.93;100.00;97490.22;4881088;29;20095;-40
2023/05/08 00:12:34;;;;;;;12.88;10.95;;;14.30;99.90;;;13.94;100.00;97493.72;4877083;29;20389;-41
2023/05/08 00:15:00;;;;;;;13.27;10.68;;;14.20;99.90;;;13.94;100.00;97497.25;4877380;29;20111;-41
2023/05/08 00:17:26;;;;;;;13.13;11.70;;;14.20;99.90;;;13.93;100.00;97492.84;4876301;29;20119;-40
2023/05/08 00:19:52;;;;;;;12.50;10.88;;;14.20;99.90;;;13.92;100.00;97500.88;4877031;29;20040;-41
2023/05/08 00:22:18;;;;;;;12.73;10.30;;;14.20;99.90;;;13.90;100.00;97495.66;4873632;29;20887;-41
2023/05/08 00:24:44;;;;;;;15.00;11.05;;;14.20;99.90;;;13.82;100.00;97492.53;4865893;29;20041;-41
2023/05/08 00:27:10;;;;;;;14.23;10.93;;;14.20;99.90;;;13.81;100.00;97484.66;4869305;29;20037;-41
2023/05/08 00:29:35;;;;;;;11.00;9.85;;;14.20;99.90;;;13.81;100.00;97484.66;4865621;29;20032;-41
2023/05/08 00:32:01;;;;;;;10.27;9.20;;;14.20;99.90;;;13.88;100.00;97496.69;4870859;29;20072;-40
2023/05/08 00:34:27;;;;;;;11.38;9.43;;;14.10;99.90;;;13.88;100.00;97501.97;4876723;29;20040;-41
2023/05/08 00:36:55;;;;;;;13.13;10.35;;;14.20;99.90;;;13.88;100.00;97501.97;4869393;29;20032;-41
2023/05/08 00:39:20;;;;;;;13.57;11.20;;;14.20;99.90;;;13.85;100.00;97497.66;4846860;29;20636;-41
2023/05/08 00:41:46;;;;;;;13.95;11.77;;;14.20;99.90;;;13.80;100.00;97497.06;4867803;29;20044;-40
2023/05/08 00:44:12;;;;;;;15.77;12.88;;;14.10;99.90;;;13.78;100.00;97508.66;4872475;29;20464;-41
2023/05/08 00:46:38;;;;;;;11.98;10.10;;;14.10;99.90;;;13.78;100.00;97508.66;4866292;29;20036;-40
2023/05/08 00:49:04;;;;;;;13.95;10.23;;;14.10;99.90;;;13.71;100.00;97490.41;4868707;29;20083;-41
2023/05/08 00:51:32;;;;;;;15.27;12.23;;;14.10;99.90;;;13.75;100.00;97504.38;4868339;29;20027;-42
2023/05/08 00:53:59;;;;;;;13.32;11.02;;;14.10;99.90;;;13.74;100.00;97507.94;4851697;29;20045;-40
2023/05/08 00:56:25;;;;;;;11.25;9.40;;;14.00;99.90;;;13.67;100.00;97499.41;4852232;29;20036;-40
2023/05/08 00:58:51;;;;;;;11.43;9.77;;;14.10;99.90;;;13.75;100.00;97509.66;4852783;29;20565;-40
2023/05/08 01:01:17;;;;;;;10.48;9.13;;;14.10;99.90;;;13.73;100.00;97515.03;4875007;29;20101;-42
2023/05/08 01:03:43;;;;;;;13.43;10.52;;;14.10;99.90;;;13.72;100.00;97515.09;4873808;29;20608;-40
2023/05/08 01:06:09;;;;;;;13.52;10.60;;;14.00;99.90;;;13.71;100.00;97516.91;4876754;29;20734;-40
2023/05/08 01:08:35;;;;;;;13.18;10.85;;;14.00;99.90;;;13.69;100.00;97520.53;4870480;29;20132;-41
2023/05/08 01:11:06;;;;;;;10.93;9.48;;;14.00;99.90;;;13.68;100.00;97517.03;4875181;29;20029;-41
2023/05/08 01:14:08;;;;;;;10.05;8.73;;;14.00;99.90;;;13.70;100.00;97516.97;4868235;29;20673;-42
2023/05/08 01:17:05;;;;;;;12.43;11.13;;;14.00;99.90;;;13.68;100.00;97522.34;4858390;29;20066;-41
2023/05/08 01:19:34;;;;;;;11.98;10.05;;;14.00;99.90;;;13.69;100.00;97517.91;4875467;29;20043;-40
2023/05/08 01:22:28;;;;;;;14.00;11.32;;;14.00;99.90;;;13.68;100.00;97513.53;4877603;29;20032;-40
2023/05/08 01:25:45;;;;;;;12.68;10.57;;;14.00;99.90;;;13.68;100.00;97518.84;4865059;29;21895;-41
2023/05/08 01:29:00;;;;;;;13.27;11.68;;;14.00;99.90;;;13.67;100.00;97514.47;4859362;29;20509;-42
2023/05/08 01:31:37;;;;;;;11.68;10.48;;;14.00;99.90;;;13.66;100.00;97520.72;4830842;29;20057;-41
2023/05/08 01:34:11;;;;;;;13.90;11.35;;;14.00;99.90;;;13.67;100.00;97525.91;4878680;29;20064;-40
2023/05/08 01:37:10;;;;;;;13.65;11.50;;;14.00;99.90;;;13.51;100.00;97494.00;4850330;29;20043;-40
2023/05/08 01:40:03;;;;;;;16.33;13.18;;;14.00;99.90;;;13.67;100.00;97525.91;4858363;29;20486;-40
2023/05/08 01:42:57;;;;;;;17.20;13.48;;;14.00;99.90;;;13.67;100.00;97525.06;4871794;29;20044;-41
2023/05/08 01:45:31;;;;;;;15.73;12.23;;;14.00;99.90;;;13.67;100.00;97523.25;4852116;29;20573;-40
2023/05/08 01:48:07;;;;;;;17.65;13.10;;;13.90;99.90;;;13.67;100.00;97525.06;4869668;29;20454;-41
2023/05/08 01:50:44;;;;;;;16.10;12.90;;;14.00;99.90;;;13.66;100.00;97528.66;4872014;29;20319;-41
2023/05/08 01:53:27;;;;;;;15.98;13.10;;;14.00;99.90;;;13.65;100.00;97527.78;4858977;29;20032;-41
2023/05/08 01:55:59;;;;;;;15.18;13.00;;;14.00;99.90;;;13.65;100.00;97526.94;4859883;29;20054;-40
2023/05/08 01:58:26;;;;;;;17.75;13.57;;;13.90;99.90;;;13.65;100.00;97524.28;4867196;29;20044;-40
2023/05/08 02:00:53;;;;;;;16.00;14.02;;;13.90;99.90;;;13.64;100.00;97530.50;4867278;29;20036;-40
2023/05/08 02:03:22;;;;;;;18.98;14.43;;;13.90;99.90;;;13.57;100.00;97516.69;4852656;29;20040;-40
2023/05/08 02:05:50;;;;;;;15.38;13.25;;;13.90;99.90;;;13.59;100.00;97530.72;4869280;29;20071;-40
2023/05/08 02:08:17;;;;;;;15.88;13.23;;;13.90;99.90;;;13.56;100.00;97531.72;4853745;29;20036;-40
2023/05/08 02:10:46;;;;;;;15.88;12.75;;;13.90;99.90;;;13.54;100.00;97532.72;4837031;29;20037;-41
2023/05/08 02:13:17;;;;;;;18.98;13.85;;;13.80;99.90;;;13.52;100.00;97532.81;4846921;29;20104;-40
2023/05/08 02:15:45;;;;;;;18.53;15.07;;;13.80;99.90;;;13.53;100.00;97533.66;4848981;29;20501;-40
2023/05/08 02:18:11;;;;;;;18.55;14.10;;;13.80;99.90;;;13.51;100.00;97528.44;4867319;29;20037;-41
2023/05/08 02:20:39;;;;;;;18.15;14.30;;;13.80;99.90;;;13.50;100.00;97528.50;4870998;29;20028;-41
2023/05/08 02:23:05;;;;;;;14.90;12.77;;;13.80;99.90;;;13.49;100.00;97529.44;4852531;29;20219;-41
2023/05/08 02:25:32;;;;;;;18.27;14.60;;;13.80;99.90;;;13.49;100.00;97532.94;4872518;29;20854;-40
2023/05/08 02:27:58;;;;;;;18.02;14.55;;;13.80;99.90;;;13.49;100.00;97529.44;4849537;29;20040;-40
2023/05/08 02:30:25;;;;;;;18.17;14.05;;;13.80;99.90;;;13.28;100.00;97502.09;4870421;29;20040;-40
2023/05/08 02:32:52;;;;;;;16.45;14.02;;;13.80;99.90;;;13.29;100.00;97498.53;4848693;29;20490;-41
2023/05/08 02:35:19;;;;;;;15.30;13.60;;;13.80;99.90;;;13.45;100.00;97536.66;4850930;29;20040;-41
2023/05/08 02:37:50;;;;;;;21.77;15.95;;;13.80;99.90;;;13.48;100.00;97538.34;4860148;29;20079;-41
2023/05/08 02:40:17;;;;;;;20.17;15.30;;;13.80;99.90;;;13.49;100.00;97540.03;4868575;29;20033;-41
2023/05/08 02:42:44;;;;;;;18.42;14.15;;;13.80;99.90;;;13.52;100.00;97535.44;4868075;29;20105;-40
2023/05/08 02:45:11;;;;;;;16.42;14.20;;;13.80;99.90;;;13.53;100.00;97544.25;4853136;29;20047;-40
2023/05/08 02:48:00;;;;;;;19.63;15.20;;;13.80;99.90;;;13.53;100.00;97541.59;4869941;29;20029;-40
2023/05/08 02:50:44;;;;;;;16.80;14.02;;;13.80;99.90;;;13.49;100.00;97530.28;4873135;29;20070;-41
2023/05/08 02:53:17;;;;;;;18.58;15.73;;;13.80;99.90;;;13.57;100.00;97545.84;4862233;29;20043;-40
2023/05/08 02:55:52;;;;;;;18.30;15.27;;;13.80;99.90;;;13.56;100.00;97544.97;4858506;29;20033;-41
2023/05/08 02:58:28;;;;;;;20.08;15.07;;;13.90;99.90;;;13.59;100.00;97541.34;4859842;29;20044;-40
2023/05/08 03:01:08;;;;;;;17.52;14.93;;;13.90;99.90;;;13.62;100.00;97540.31;4857811;29;20207;-41
2023/05/08 03:03:49;;;;;;;16.90;13.93;;;13.90;99.90;;;13.64;100.00;97543.75;4864562;29;20048;-42
2023/05/08 03:06:21;;;;;;;16.13;13.57;;;13.90;99.90;;;13.65;100.00;97537.53;4880247;29;20032;-40
2023/05/08 03:08:49;;;;;;;15.98;13.52;;;14.00;99.90;;;13.65;100.00;97526.94;4868550;29;20772;-40
2023/05/08 03:11:21;;;;;;;14.45;12.32;;;13.90;99.90;;;13.66;100.00;97531.31;4861908;29;20047;-40
2023/05/08 03:13:49;;;;;;;15.35;12.63;;;14.00;99.90;;;13.66;100.00;97534.81;4853952;29;20071;-40
2023/05/08 03:16:21;;;;;;;14.95;11.93;;;14.00;99.90;;;13.66;100.00;97533.97;4862264;29;20036;-41
2023/05/08 03:18:54;;;;;;;12.23;10.88;;;13.90;99.90;;;13.66;100.00;97534.81;4871664;29;20060;-40
2023/05/08 03:21:22;;;;;;;12.15;10.82;;;14.00;99.90;;;13.61;100.00;97523.56;4861326;29;20040;-40
2023/05/08 03:23:50;;;;;;;14.05;11.23;;;14.00;99.90;;;13.68;100.00;97529.44;4876075;29;20031;-41
2023/05/08 03:26:20;;;;;;;12.45;10.75;;;14.00;99.90;;;13.67;100.00;97535.66;4879678;29;20040;-40
2023/05/08 03:28:50;;;;;;;12.57;10.82;;;14.00;99.90;;;13.66;100.00;97526.84;4876535;29;20024;-41
2023/05/08 03:31:20;;;;;;;13.55;10.98;;;14.00;99.90;;;13.66;100.00;97531.31;4878537;29;20279;-41
2023/05/08 03:33:47;;;;;;;15.65;10.73;;;14.00;99.90;;;13.66;100.00;97537.47;4877675;29;20570;-40
2023/05/08 03:36:14;;;;;;;10.35;9.18;;;14.00;99.90;;;13.65;100.00;97532.22;4862294;29;20112;-41
2023/05/08 03:38:41;;;;;;;11.98;9.60;;;14.00;99.90;;;13.66;100.00;97536.59;4875546;29;20044;-42
2023/05/08 03:41:07;;;;;;;12.68;10.00;;;14.00;99.90;;;13.58;100.00;97522.84;4864024;29;20199;-40
2023/05/08 03:43:35;;;;;;;11.70;9.13;;;14.00;99.90;;;13.66;100.00;97534.81;4881547;29;20040;-40
2023/05/08 03:46:01;;;;;;;14.70;10.00;;;14.00;99.90;;;13.67;100.00;97546.25;4879732;29;20051;-40
2023/05/08 03:48:29;;;;;;;11.88;10.57;;;14.00;99.90;;;13.65;100.00;97535.72;4880356;29;20417;-40
2023/05/08 03:50:56;;;;;;;14.40;10.27;;;14.00;99.90;;;13.64;100.00;97541.97;4859767;29;20043;-39
2023/05/08 03:53:22;;;;;;;9.70;8.35;;;13.90;99.90;;;13.65;100.00;97537.53;4879178;29;20373;-39
2023/05/08 03:55:48;;;;;;;10.90;8.75;;;14.00;99.90;;;13.65;100.00;97543.69;4874984;29;20127;-40
2023/05/08 03:58:25;;;;;;;11.63;9.48;;;13.90;99.90;;;13.66;100.00;97545.41;4876997;29;20056;-38
2023/05/08 04:01:10;;;;;;;13.95;10.77;;;14.00;99.90;;;13.67;100.00;97535.66;4864902;29;20056;-39
2023/05/08 04:04:20;;;;;;;12.52;10.77;;;14.00;99.90;;;13.67;100.00;97548.91;4849465;29;20119;-40
2023/05/08 04:07:05;;;;;;;12.82;10.55;;;14.00;99.90;;;13.67;100.00;97546.25;4813202;29;20041;-39
2023/05/08 04:09:39;;;;;;;11.20;10.00;;;14.00;99.90;;;13.66;100.00;97537.47;4874869;29;20052;-39
2023/05/08 04:12:21;;;;;;;12.85;9.65;;;14.00;99.90;;;13.51;100.00;97520.50;4853150;29;20040;-39
2023/05/08 04:14:55;;;;;;;15.50;11.55;;;14.00;99.90;;;13.67;100.00;97547.13;4853159;29;21187;-38
2023/05/08 04:17:48;;;;;;;16.45;11.45;;;14.00;99.90;;;13.67;100.00;97554.22;4871975;29;20033;-40
2023/05/08 04:20:19;;;;;;;12.07;10.50;;;14.00;99.90;;;13.68;100.00;97559.44;4873175;29;20036;-39
2023/05/08 04:22:47;;;;;;;11.35;10.13;;;14.00;99.90;;;13.66;100.00;97552.50;4872261;29;20553;-39
2023/05/08 04:25:15;;;;;;;11.43;10.23;;;14.00;99.90;;;13.70;100.00;97560.22;4873555;29;20044;-40
2023/05/08 04:27:42;;;;;;;13.05;11.38;;;14.00;99.90;;;13.70;100.00;97554.06;4856433;29;20119;-40
2023/05/08 04:30:09;;;;;;;12.68;10.13;;;14.00;99.90;;;13.71;100.00;97561.97;4871831;29;20032;-40
2023/05/08 04:32:36;;;;;;;11.57;10.30;;;14.00;99.90;;;13.71;100.00;97561.97;4871514;29;20385;-42
2023/05/08 04:35:03;;;;;;;11.23;9.63;;;14.00;99.90;;;13.73;100.00;97567.19;4874073;29;20079;-40
2023/05/08 04:37:32;;;;;;;10.73;9.52;;;14.00;99.90;;;13.73;100.00;97567.19;4872082;29;20051;-42
2023/05/08 04:39:59;;;;;;;13.30;10.90;;;14.00;99.90;;;13.77;100.00;97573.22;4872698;29;20064;-41
2023/05/08 04:42:25;;;;;;;12.65;11.05;;;14.10;99.90;;;13.77;100.00;97574.06;4876748;29;20127;-40
2023/05/08 04:44:52;;;;;;;15.48;12.75;;;14.10;99.90;;;13.80;100.00;97575.69;4867808;29;20032;-41
2023/05/08 04:47:18;;;;;;;14.70;11.50;;;14.10;99.90;;;13.84;100.00;97574.63;4867314;29;23102;-40
2023/05/08 04:49:43;;;;;;;14.63;12.20;;;14.10;99.90;;;13.86;100.00;97578.91;4868863;29;20040;-40
2023/05/08 04:52:09;;;;;;;15.30;11.98;;;14.20;99.90;;;13.88;100.00;97577.06;4864717;29;20845;-40
2023/05/08 04:54:35;;;;;;;12.73;11.32;;;14.20;99.90;;;13.92;100.00;97577.78;4865796;29;20028;-40
2023/05/08 04:57:01;;;;;;;12.57;11.25;;;14.20;99.90;;;13.93;100.00;97577.69;4858186;29;21282;-41
2023/05/08 04:59:28;;;;;;;13.23;11.40;;;14.20;99.90;;;13.93;100.00;97583.00;4868976;29;20029;-41
2023/05/08 05:01:55;;;;;;;12.18;10.13;;;14.30;99.90;;;13.96;100.00;97579.34;4869307;29;20042;-41
2023/05/08 05:04:21;;;;;;;12.63;11.02;;;14.30;99.90;;;13.98;100.00;97585.44;4872960;29;20321;-40
2023/05/08 05:06:47;;;;;;;10.85;9.73;;;14.30;99.90;;;14.00;100.00;97575.63;4864413;29;20394;-43
2023/05/08 05:09:13;;;;;;;12.38;10.35;;;14.30;99.90;;;14.03;100.00;97587.84;4873984;29;20248;-41
2023/05/08 05:11:39;;;;;;;12.75;10.82;;;14.40;99.90;;;14.05;100.00;97588.63;4865862;29;20160;-42
2023/05/08 05:14:06;;;;;;;13.90;11.18;;;14.40;99.90;;;14.03;100.00;97588.75;4859602;29;20417;-42
2023/05/08 05:16:32;;;;;;;12.15;10.90;;;14.40;99.90;;;14.05;100.00;97593.94;4870765;29;20035;-43
2023/05/08 05:18:58;;;;;;;11.98;9.75;;;14.40;99.90;;;14.07;100.00;97595.63;4867881;29;20525;-41
2023/05/08 05:21:24;;;;;;;9.98;8.90;;;14.40;99.90;;;13.87;100.00;97548.84;4865968;29;20774;-42
2023/05/08 05:23:50;;;;;;;10.43;9.43;;;14.40;99.90;;;14.08;100.00;97592.00;4867926;29;20033;-43
2023/05/08 05:26:16;;;;;;;11.63;9.77;;;14.50;99.90;;;14.17;100.00;97600.47;4868796;29;20226;-41
2023/05/08 05:28:42;;;;;;;11.73;9.70;;;14.50;99.90;;;14.17;100.00;97598.66;4863957;29;20056;-42
2023/05/08 05:31:07;;;;;;;14.02;12.00;;;14.50;99.90;;;14.18;100.00;97602.19;4866359;29;20068;-41
2023/05/08 05:33:33;;;;;;;11.45;9.50;;;14.50;99.90;;;14.18;100.00;97600.41;4868161;29;20107;-41
2023/05/08 05:35:59;;;;;;;12.55;11.00;;;14.50;99.90;;;14.19;100.00;97606.56;4863407;29;20040;-40
2023/05/08 05:38:25;;;;;;;11.35;10.13;;;14.50;99.90;;;14.22;100.00;97607.25;4870603;29;20033;-41
2023/05/08 05:40:50;;;;;;;11.02;9.32;;;14.60;99.90;;;14.27;100.00;97599.94;4873611;29;20573;-43
2023/05/08 05:43:16;;;;;;;13.00;11.57;;;14.60;99.90;;;14.25;100.00;97606.28;4877779;29;20029;-40
2023/05/08 05:45:42;;;;;;;11.38;9.88;;;14.60;99.90;;;14.33;100.00;97610.25;4869345;29;20300;-40
2023/05/08 05:48:07;;;;;;;10.50;9.40;;;14.70;99.90;;;14.38;100.00;97602.06;4874074;29;20383;-41
2023/05/08 05:50:33;;;;;;;9.77;8.77;;;14.70;99.90;;;14.43;100.00;97604.53;4874724;29;20051;-40
2023/05/08 05:52:59;;;;;;;10.55;8.20;;;14.70;99.90;;;14.51;100.00;97605.81;4870535;29;20120;-43
2023/05/08 05:55:25;;;;;;;11.77;10.40;;;14.80;99.90;;;14.56;100.00;97604.75;4867158;29;20620;-41
2023/05/08 05:57:51;;;;;;;11.65;10.43;;;14.90;99.90;;;14.61;100.00;97608.09;4867250;29;20367;-40
2023/05/08 06:00:18;;;;;;;10.48;8.65;;;14.90;99.90;;;14.64;100.00;97614.09;4865270;29;20104;-43
2023/05/08 06:02:44;;;;;;;13.60;10.98;;;14.90;99.90;;;14.64;100.00;97607.91;4862481;29;20031;-41
2023/05/08 06:05:09;;;;;;;10.25;9.07;;;15.00;99.90;;;14.58;100.00;97608.22;4867694;29;20120;-42
2023/05/08 06:07:35;;;;;;;16.40;11.40;;;15.00;99.90;;;14.63;100.00;97608.88;4866593;29;20025;-40
2023/05/08 06:10:01;;;;;;;10.82;8.60;;;14.90;99.90;;;14.63;100.00;97616.81;4866593;29;20565;-40
2023/05/08 06:12:27;;;;;;;9.43;8.43;;;14.90;99.90;;;14.61;100.00;97616.03;4869330;29;20040;-42
2023/05/08 06:14:54;;;;;;;10.68;8.50;;;14.90;99.90;;;14.58;100.00;97618.84;4862814;29;20151;-41
2023/05/08 06:17:19;;;;;;;10.43;9.00;;;14.90;99.90;;;14.52;100.00;97615.53;4872463;29;20567;-40
2023/05/08 06:19:49;;;;;;;9.98;8.50;;;14.90;99.90;;;14.51;100.00;97615.59;4870471;29;20127;-41
2023/05/08 06:22:19;;;;;;;12.50;10.38;;;14.80;99.90;;;14.43;100.00;97618.63;4873215;29;20048;-41
2023/05/08 06:24:45;;;;;;;11.40;9.30;;;14.80;99.90;;;14.40;100.00;97623.22;4866782;29;20518;-40
2023/05/08 06:27:11;;;;;;;10.38;9.27;;;14.70;99.90;;;14.31;100.00;97608.63;4874929;29;20040;-42
2023/05/08 06:29:36;;;;;;;9.70;8.55;;;14.70;99.90;;;14.37;100.00;97629.53;4871487;29;20785;-41
2023/05/08 06:32:02;;;;;;;9.43;8.20;;;14.70;99.90;;;14.36;100.00;97621.66;4870772;29;20116;-40
2023/05/08 06:34:28;;;;;;;12.27;10.40;;;14.70;99.90;;;14.37;100.00;97623.38;4867212;29;20409;-42
2023/05/08 06:36:57;;;;;;;13.30;9.30;;;14.70;99.90;;;14.37;100.00;97628.69;4870836;29;20315;-41
2023/05/08 06:39:22;;;;;;;11.23;9.35;;;14.70;99.90;;;14.37;100.00;97626.03;4869653;29;20101;-40
2023/05/08 06:41:48;;;;;;;8.00;7.10;;;14.60;99.90;;;14.29;100.00;97621.94;4866343;29;20040;-43
2023/05/08 06:44:15;;;;;;;8.90;7.55;;;14.70;99.90;;;14.37;100.00;97634.84;4873791;29;20478;-40
2023/05/08 06:46:40;;;;;;;10.77;8.95;;;14.70;99.90;;;14.29;100.00;97619.28;4859498;29;20128;-41
2023/05/08 06:49:06;;;;;;;9.30;7.68;;;14.70;99.90;;;14.35;100.00;97634.06;4875382;29;20116;-41
2023/05/08 06:51:34;;;;;;;10.80;8.43;;;14.70;99.90;;;14.35;100.00;97631.41;4872778;29;20082;-42
2023/05/08 06:54:00;;;;;;;10.25;7.95;;;14.70;99.90;;;14.36;100.00;97633.13;4871399;29;20475;-40
2023/05/08 06:56:26;;;;;;;9.15;8.10;;;14.70;99.90;;;14.35;100.00;97630.56;4874170;29;20025;-41
2023/05/08 06:58:52;;;;;;;8.98;8.07;;;14.70;99.90;;;14.37;100.00;97636.63;4872782;29;20287;-41
2023/05/08 07:01:17;;;;;;;10.32;9.07;;;14.70;99.90;;;14.38;100.00;97625.94;4874184;29;20466;-42
2023/05/08 07:03:43;;;;;;;10.93;9.50;;;14.70;99.90;;;14.40;100.00;97632.03;4869790;29;20045;-41
2023/05/08 07:06:09;;;;;;;9.20;8.27;;;14.70;99.90;;;14.42;100.00;97638.13;4872652;29;20418;-41
2023/05/08 07:08:35;;;;;;;12.95;9.98;;;14.70;99.90;;;14.43;100.00;97636.34;4869789;29;20032;-41
2023/05/08 07:11:02;;;;;;;12.65;10.65;;;14.80;99.90;;;14.40;100.00;97632.03;4871878;29;20045;-40
2023/05/08 07:13:28;;;;;;;11.30;9.68;;;14.70;99.90;;;14.39;100.00;97637.41;4869271;29;20033;-41
2023/05/08 07:15:54;;;;;;;13.38;10.48;;;14.70;99.90;;;14.37;100.00;97634.84;4868972;29;21679;-41
2023/05/08 07:18:20;;;;;;;11.40;8.93;;;14.60;99.90;;;14.42;100.00;97642.59;4870604;29;20047;-40
2023/05/08 07:20:46;;;;;;;10.68;8.57;;;14.70;99.90;;;14.45;100.00;97645.94;4856427;29;20040;-41
2023/05/08 07:23:11;;;;;;;10.80;9.45;;;14.70;99.90;;;14.47;100.00;97638.78;4868419;29;20067;-41
2023/05/08 07:25:37;;;;;;;10.90;9.75;;;14.80;99.90;;;14.53;100.00;97637.59;4870802;29;20115;-42
2023/05/08 07:28:03;;;;;;;11.30;8.57;;;14.80;99.90;;;14.56;100.00;97631.31;4871903;29;20505;-41
2023/05/08 07:30:29;;;;;;;8.82;7.93;;;14.90;99.90;;;14.70;100.00;97637.66;4870576;29;20076;-41
2023/05/08 07:32:55;;;;;;;8.95;8.05;;;14.90;99.90;;;14.84;100.00;97641.41;4866988;29;20086;-41
2023/05/08 07:35:20;;;;;;;10.40;9.27;;;15.10;99.90;;;14.95;100.00;97644.41;4876715;29;20045;-40
2023/05/08 07:37:46;;;;;;;9.77;8.50;;;15.20;99.90;;;15.08;100.00;97648.16;4867069;29;20073;-41
2023/05/08 07:40:12;;;;;;;9.40;8.40;;;15.30;99.90;;;15.24;100.00;97645.56;4874439;29;20505;-41
2023/05/08 07:42:42;;;;;;;13.25;9.25;;;15.50;99.90;;;15.39;100.00;97640.38;4874217;29;20151;-41
2023/05/08 07:45:10;;;;;;;14.85;10.43;;;15.70;99.90;;;15.51;100.00;97647.72;4873564;29;20513;-40
2023/05/08 07:47:36;;;;;;;9.80;8.15;;;15.80;99.90;;;15.60;100.00;97630.44;4875618;29;20037;-40
2023/05/08 07:50:03;;;;;;;11.10;7.82;;;16.00;99.90;;;15.72;100.00;97651.03;4872701;29;20356;-41
2023/05/08 07:52:28;;;;;;;10.13;8.00;;;16.10;99.90;;;15.80;100.00;97655.97;4875754;29;20492;-41
2023/05/08 07:54:54;;;;;;;8.73;7.88;;;16.10;99.90;;;15.79;100.00;97646.25;4874521;29;20079;-41
2023/05/08 07:57:20;;;;;;;8.32;7.28;;;16.10;99.90;;;15.89;100.00;97650.16;4877623;29;20075;-41
2023/05/08 07:59:45;;;;;;;10.82;7.30;;;16.20;99.90;;;15.66;100.00;97614.13;4874051;29;20036;-41
2023/05/08 08:02:11;;;;;;;8.77;7.35;;;16.20;99.90;;;15.90;100.00;97657.19;4873453;29;20035;-40
2023/05/08 08:04:38;;;;;;;7.18;5.45;;;16.30;99.90;;;15.88;100.00;97648.44;4871616;29;20049;-41
2023/05/08 08:07:04;;;;;;;6.00;5.40;;;16.20;99.90;;;15.88;100.00;97653.78;4875168;29;20028;-41
2023/05/08 08:09:30;;;;;;;7.75;6.55;;;16.20;99.90;;;15.83;100.00;97661.13;4876252;29;20028;-41
2023/05/08 08:11:55;;;;;;;12.52;10.02;;;16.20;99.90;;;15.68;100.00;97656.59;4875334;29;20407;-41
2023/05/08 08:14:21;;;;;;;16.23;12.68;;;16.10;99.90;;;15.57;100.00;97657.16;4875722;29;20488;-42
2023/05/08 08:16:47;;;;;;;13.75;11.27;;;15.90;99.90;;;15.49;100.00;97660.22;4874445;29;20037;-41
2023/05/08 08:19:13;;;;;;;10.38;9.27;;;15.80;99.90;;;15.46;100.00;97663.91;4868215;29;20044;-41
2023/05/08 08:21:42;;;;;;;10.02;8.13;;;15.80;99.90;;;15.47;100.00;97654.16;4874293;29;20032;-42
2023/05/08 08:24:08;;;;;;;10.57;8.55;;;15.80;99.90;;;15.42;100.00;97648.22;4876635;29;20032;-40
2023/05/08 08:26:34;;;;;;;12.20;9.90;;;15.80;99.90;;;15.42;100.00;97665.00;4875333;29;20345;-41
2023/05/08 08:29:00;;;;;;;8.63;7.70;;;15.80;99.90;;;15.43;100.00;97661.41;4868517;29;20733;-41
2023/05/08 08:31:26;;;;;;;9.35;8.32;;;15.80;99.90;;;15.50;100.00;97667.25;4875150;29;20416;-41
2023/05/08 08:33:52;;;;;;;12.20;8.07;;;15.80;99.90;;;15.56;100.00;97668.72;4872633;29;20481;-41
2023/05/08 08:36:18;;;;;;;8.57;7.63;;;15.90;99.90;;;15.68;100.00;97670.72;4866521;29;20040;-40
2023/05/08 08:38:44;;;;;;;7.75;6.30;;;16.00;99.90;;;15.83;100.00;97664.63;4868185;29;20352;-41
2023/05/08 08:41:13;;;;;;;9.15;7.95;;;16.20;99.90;;;15.95;100.00;97657.81;4875444;29;20068;-41
2023/05/08 08:43:42;;;;;;;10.00;8.00;;;16.30;99.90;;;16.04;100.00;97669.72;4871713;29;20435;-42
2023/05/08 08:46:13;;;;;;;10.18;7.38;;;16.40;99.90;;;16.18;100.00;97672.47;4871773;29;20033;-40
2023/05/08 08:48:45;;;;;;;10.40;7.60;;;16.50;99.90;;;16.25;100.00;97665.03;4873962;29;20133;-40
2023/05/08 08:51:23;;;;;;;10.60;7.32;;;16.60;99.90;;;16.29;100.00;97657.72;4861474;29;20452;-41
2023/05/08 08:54:06;;;;;;;10.18;6.45;;;16.70;99.90;;;16.39;100.00;97664.25;4870865;29;20253;-41
2023/05/08 08:56:33;;;;;;;7.68;6.32;;;16.70;99.90;;;16.40;100.00;97680.16;4872383;29;20036;-41
2023/05/08 08:59:00;;;;;;;7.57;6.07;;;16.70;99.90;;;16.34;100.00;97674.31;4874813;29;20051;-41
2023/05/08 09:01:30;;;;;;;6.97;5.18;;;16.70;99.90;;;16.32;100.00;97677.03;4874106;29;20044;-41
2023/05/08 09:03:59;;;;;;;8.98;5.68;;;16.60;99.90;;;16.28;100.00;97679.97;4869148;29;20078;-40
2023/05/08 09:06:26;;;;;;;5.93;4.45;;;16.60;99.90;;;16.26;100.00;97661.44;4869420;29;20036;-41
2023/05/08 09:08:55;;;;;;;6.18;5.25;;;16.60;99.90;;;16.41;100.00;97675.69;4875005;29;20040;-41
2023/05/08 09:11:21;;;;;;;5.72;4.90;;;16.70;99.90;;;16.47;100.00;97675.31;4869867;29;20155;-41
2023/05/08 09:13:47;;;;;;;11.38;7.45;;;16.70;99.90;;;16.39;100.00;97674.91;4876185;29;20052;-41
2023/05/08 09:16:13;;;;;;;9.20;6.53;;;16.70;99.90;;;16.40;100.00;97673.94;4855421;29;20701;-41
2023/05/08 09:18:38;;;;;;;7.82;5.97;;;16.70;99.90;;;16.37;100.00;97676.81;4853689;29;20032;-42
2023/05/08 09:21:06;;;;;;;11.25;6.68;;;16.70;99.90;;;16.30;100.00;97672.75;4876741;29;20039;-42
2023/05/08 09:23:31;;;;;;;7.03;5.38;;;16.60;99.90;;;16.24;100.00;97684.63;4870625;29;20063;-41
2023/05/08 09:25:57;;;;;;;9.05;6.60;;;16.50;99.90;;;16.18;100.00;97682.28;4855920;29;20477;-40
2023/05/08 09:28:26;;;;;;;8.63;6.15;;;16.50;99.90;;;16.13;100.00;97676.34;4873647;29;20433;-43
2023/05/08 09:30:57;;;;;;;6.10;5.50;;;16.40;99.90;;;16.21;100.00;97682.13;4875117;29;20116;-41
2023/05/08 09:33:26;;;;;;;8.15;6.57;;;16.50;99.90;;;16.30;100.00;97678.09;4874558;29;20100;-42
2023/05/08 09:35:52;;;;;;;12.05;7.50;;;16.60;99.90;;;16.38;100.00;97675.84;4873295;29;20044;-41
2023/05/08 09:38:39;;;;;;;8.98;7.28;;;16.80;99.90;;;16.61;100.00;97682.53;4858876;29;20122;-41
2023/05/08 09:41:15;;;;;;;7.45;5.80;;;17.00;99.90;;;16.83;100.00;97690.16;4874475;29;20072;-42
2023/05/08 09:43:59;;;;;;;8.45;5.97;;;17.20;99.90;;;17.05;100.00;97683.59;4870525;29;20394;-43
2023/05/08 09:46:26;;;;;;;6.35;5.10;;;17.40;99.90;;;17.27;100.00;97691.19;4876049;29;20079;-40
2023/05/08 09:49:01;;;;;;;8.35;6.97;;;17.60;99.90;;;17.41;100.00;97691.25;4872212;29;20361;-41
2023/05/08 09:51:30;;;;;;;7.28;5.47;;;17.80;99.90;;;17.59;100.00;97694.59;4871416;29;20032;-40
2023/05/08 09:53:58;;;;;;;8.55;6.45;;;17.90;99.90;;;17.71;100.00;97691.19;4873999;29;20123;-40
2023/05/08 09:56:32;;;;;;;9.13;6.63;;;18.00;99.90;;;17.69;100.00;97687.75;4858326;29;20040;-40
2023/05/08 09:58:58;;;;;;;8.30;5.95;;;18.00;99.90;;;17.67;100.00;97681.63;4872562;29;20067;-40
2023/05/08 10:01:33;;;;;;;6.70;5.35;;;18.00;99.90;;;17.70;100.00;97694.78;4870219;29;20501;-41
2023/05/08 10:04:00;;;;;;;7.13;5.40;;;18.00;99.90;;;17.64;100.00;97688.97;4875189;29;20536;-41
2023/05/08 10:06:29;;;;;;;7.50;6.03;;;18.00;99.90;;;17.66;100.00;97690.63;4874101;29;20033;-41
2023/05/08 10:09:13;;;;;;;9.73;6.50;;;18.00;99.90;;;17.66;100.00;97679.94;4872349;29;20067;-42
2023/05/08 10:11:40;;;;;;;9.95;7.15;;;18.10;99.90;;;17.65;100.00;97683.53;4872041;29;20095;-40
2023/05/08 10:14:07;;;;;;;13.63;8.93;;;18.00;99.90;;;17.62;100.00;97696.22;4870272;29;20034;-41